sensor_id;sensor_type;location;lat;lon;timestamp;P1;durP1;ratioP1;P2;durP2;ratioP2
64022;SDS011;50264;52.088;5.296;2023-01-20T00:01:18;9.1;;;7.5;;
64022;SDS011;50264;52.088;5.296;2023-01-20T00:02:55;7.6;;;6.9;;
64022;SDS011;50264;52.088;5.296;2023-01-20T00:06:07;8.2;;;6.9;;
64022;SDS011;50264;52.088;5.296;2023-01-20T00:07:44;10.21;;;7.5;;
64022;SDS011;50264;52.088;5.296;2023-01-20T00:09:21;7.5;;;6.8;;
64022;SDS011;50264;52.088;5.296;2023-01-20T00:12:37;8.2;;;7.4;;
64022;SDS011;50264;52.088;5.296;2023-01-20T00:14:14;8.81;;;7.7;;
64022;SDS011;50264;52.088;5.296;2023-01-20T00:15:51;8.1;;;7.3;;
64022;SDS011;50264;52.088;5.296;2023-01-20T00:17:27;10.7;;;8.1;;
64022;SDS011;50264;52.088;5.296;2023-01-20T00:20:39;9.5;;;8.0;;
64022;SDS011;50264;52.088;5.296;2023-01-20T00:22:16;14.3;;;9.71;;
64022;SDS011;50264;52.088;5.296;2023-01-20T00:23:53;13.6;;;8.5;;
64022;SDS011;50264;52.088;5.296;2023-01-20T00:27:07;8.81;;;7.9;;
64022;SDS011;50264;52.088;5.296;2023-01-20T00:28:43;9.21;;;7.6;;
64022;SDS011;50264;52.088;5.296;2023-01-20T00:30:20;13.4;;;10.6;;
64022;SDS011;50264;52.088;5.296;2023-01-20T00:33:33;14.1;;;10.7;;
64022;SDS011;50264;52.088;5.296;2023-01-20T00:35:09;12.4;;;10.9;;
64022;SDS011;50264;52.088;5.296;2023-01-20T00:36:46;14.4;;;12.1;;
64022;SDS011;50264;52.088;5.296;2023-01-20T00:38:23;9.71;;;8.4;;
64022;SDS011;50264;52.088;5.296;2023-01-20T00:41:35;11.1;;;10.0;;
64022;SDS011;50264;52.088;5.296;2023-01-20T00:43:12;12.9;;;11.5;;
64022;SDS011;50264;52.088;5.296;2023-01-20T00:44:48;16.61;;;11.8;;
64022;SDS011;50264;52.088;5.296;2023-01-20T00:48:00;14.2;;;11.7;;
64022;SDS011;50264;52.088;5.296;2023-01-20T00:49:36;13.9;;;11.4;;
64022;SDS011;50264;52.088;5.296;2023-01-20T00:51:13;13.5;;;11.8;;
64022;SDS011;50264;52.088;5.296;2023-01-20T00:54:26;12.9;;;11.0;;
64022;SDS011;50264;52.088;5.296;2023-01-20T00:56:02;17.91;;;12.6;;
64022;SDS011;50264;52.088;5.296;2023-01-20T00:57:39;15.8;;;12.7;;
64022;SDS011;50264;52.088;5.296;2023-01-20T01:00:52;14.7;;;11.9;;
64022;SDS011;50264;52.088;5.296;2023-01-20T01:02:30;14.6;;;12.4;;
64022;SDS011;50264;52.088;5.296;2023-01-20T01:04:06;16.8;;;13.3;;
64022;SDS011;50264;52.088;5.296;2023-01-20T01:05:42;22.5;;;15.7;;
64022;SDS011;50264;52.088;5.296;2023-01-20T01:08:56;12.4;;;11.1;;
64022;SDS011;50264;52.088;5.296;2023-01-20T01:10:32;17.0;;;13.2;;
64022;SDS011;50264;52.088;5.296;2023-01-20T01:12:09;19.11;;;16.3;;
64022;SDS011;50264;52.088;5.296;2023-01-20T01:15:22;18.61;;;15.9;;
64022;SDS011;50264;52.088;5.296;2023-01-20T01:16:58;19.2;;;16.7;;
64022;SDS011;50264;52.088;5.296;2023-01-20T01:18:34;24.7;;;17.5;;
64022;SDS011;50264;52.088;5.296;2023-01-20T01:21:48;18.41;;;15.4;;
64022;SDS011;50264;52.088;5.296;2023-01-20T01:23:24;24.9;;;16.61;;
64022;SDS011;50264;52.088;5.296;2023-01-20T01:25:01;23.8;;;18.41;;
64022;SDS011;50264;52.088;5.296;2023-01-20T01:26:38;24.5;;;18.5;;
64022;SDS011;50264;52.088;5.296;2023-01-20T01:29:50;24.5;;;18.3;;
64022;SDS011;50264;52.088;5.296;2023-01-20T01:31:26;21.8;;;17.41;;
64022;SDS011;50264;52.088;5.296;2023-01-20T01:33:02;23.4;;;17.41;;
64022;SDS011;50264;52.088;5.296;2023-01-20T01:37:52;22.6;;;19.0;;
64022;SDS011;50264;52.088;5.296;2023-01-20T01:39:28;23.5;;;18.2;;
64022;SDS011;50264;52.088;5.296;2023-01-20T01:42:41;22.7;;;18.7;;
64022;SDS011;50264;52.088;5.296;2023-01-20T01:44:18;22.7;;;18.8;;
64022;SDS011;50264;52.088;5.296;2023-01-20T01:45:56;21.8;;;18.2;;
64022;SDS011;50264;52.088;5.296;2023-01-20T01:47:33;26.1;;;19.61;;
64022;SDS011;50264;52.088;5.296;2023-01-20T01:50:53;20.7;;;17.61;;
64022;SDS011;50264;52.088;5.296;2023-01-20T01:52:33;24.3;;;18.5;;
64022;SDS011;50264;52.088;5.296;2023-01-20T01:54:11;23.5;;;19.11;;
64022;SDS011;50264;52.088;5.296;2023-01-20T01:55:53;26.9;;;20.7;;
64022;SDS011;50264;52.088;5.296;2023-01-20T01:59:10;26.6;;;20.3;;
64022;SDS011;50264;52.088;5.296;2023-01-20T02:00:49;28.3;;;21.2;;
64022;SDS011;50264;52.088;5.296;2023-01-20T02:02:26;26.9;;;22.0;;
64022;SDS011;50264;52.088;5.296;2023-01-20T02:05:44;26.0;;;20.6;;
64022;SDS011;50264;52.088;5.296;2023-01-20T02:07:23;29.0;;;20.8;;
64022;SDS011;50264;52.088;5.296;2023-01-20T02:09:02;27.7;;;21.7;;
64022;SDS011;50264;52.088;5.296;2023-01-20T02:10:39;32.9;;;24.0;;
64022;SDS011;50264;52.088;5.296;2023-01-20T02:13:57;27.5;;;21.6;;
64022;SDS011;50264;52.088;5.296;2023-01-20T02:15:36;33.6;;;24.5;;
64022;SDS011;50264;52.088;5.296;2023-01-20T02:17:22;35.21;;;24.4;;
64022;SDS011;50264;52.088;5.296;2023-01-20T02:19:07;39.81;;;26.7;;
64022;SDS011;50264;52.088;5.296;2023-01-20T02:21:26;38.71;;;25.1;;
64022;SDS011;50264;52.088;5.296;2023-01-20T02:24:12;36.0;;;25.8;;
64022;SDS011;50264;52.088;5.296;2023-01-20T02:26:31;41.5;;;26.2;;
64022;SDS011;50264;52.088;5.296;2023-01-20T02:32:49;41.2;;;27.2;;
64022;SDS011;50264;52.088;5.296;2023-01-20T02:34:35;42.0;;;29.7;;
64022;SDS011;50264;52.088;5.296;2023-01-20T02:36:18;46.4;;;30.0;;
64022;SDS011;50264;52.088;5.296;2023-01-20T02:38:06;47.6;;;33.1;;
64022;SDS011;50264;52.088;5.296;2023-01-20T02:39:52;49.5;;;32.0;;
64022;SDS011;50264;52.088;5.296;2023-01-20T02:43:28;46.5;;;32.3;;
64022;SDS011;50264;52.088;5.296;2023-01-20T02:45:12;45.6;;;33.6;;
64022;SDS011;50264;52.088;5.296;2023-01-20T02:46:57;51.7;;;34.4;;
64022;SDS011;50264;52.088;5.296;2023-01-20T02:48:40;56.6;;;34.4;;
64022;SDS011;50264;52.088;5.296;2023-01-20T02:50:22;48.1;;;33.71;;
64022;SDS011;50264;52.088;5.296;2023-01-20T02:53:49;58.3;;;37.4;;
64022;SDS011;50264;52.088;5.296;2023-01-20T02:55:32;57.5;;;36.6;;
64022;SDS011;50264;52.088;5.296;2023-01-20T02:57:14;54.7;;;35.9;;
64022;SDS011;50264;52.088;5.296;2023-01-20T02:58:57;54.4;;;35.1;;
64022;SDS011;50264;52.088;5.296;2023-01-20T03:00:39;54.2;;;36.81;;
64022;SDS011;50264;52.088;5.296;2023-01-20T03:04:01;58.6;;;37.4;;
64022;SDS011;50264;52.088;5.296;2023-01-20T03:05:41;55.1;;;35.6;;
64022;SDS011;50264;52.088;5.296;2023-01-20T03:07:25;55.1;;;37.81;;
64022;SDS011;50264;52.088;5.296;2023-01-20T03:09:04;59.3;;;38.31;;
64022;SDS011;50264;52.088;5.296;2023-01-20T03:12:26;52.8;;;36.9;;
64022;SDS011;50264;52.088;5.296;2023-01-20T03:14:10;57.1;;;36.0;;
64022;SDS011;50264;52.088;5.296;2023-01-20T03:15:51;59.3;;;38.71;;
64022;SDS011;50264;52.088;5.296;2023-01-20T03:17:32;60.2;;;37.71;;
64022;SDS011;50264;52.088;5.296;2023-01-20T03:20:46;62.0;;;38.0;;
64022;SDS011;50264;52.088;5.296;2023-01-20T03:22:22;60.7;;;40.4;;
64022;SDS011;50264;52.088;5.296;2023-01-20T03:23:59;62.7;;;40.9;;
64022;SDS011;50264;52.088;5.296;2023-01-20T03:27:15;67.6;;;42.0;;
64022;SDS011;50264;52.088;5.296;2023-01-20T03:28:53;63.3;;;41.4;;
64022;SDS011;50264;52.088;5.296;2023-01-20T03:30:29;67.91;;;41.4;;
64022;SDS011;50264;52.088;5.296;2023-01-20T03:32:07;65.0;;;41.8;;
64022;SDS011;50264;52.088;5.296;2023-01-20T03:35:25;64.6;;;41.3;;
64022;SDS011;50264;52.088;5.296;2023-01-20T03:37:02;65.41;;;42.7;;
64022;SDS011;50264;52.088;5.296;2023-01-20T03:38:39;71.3;;;42.7;;
64022;SDS011;50264;52.088;5.296;2023-01-20T03:41:55;69.3;;;41.3;;
64022;SDS011;50264;52.088;5.296;2023-01-20T03:43:42;61.7;;;39.4;;
64022;SDS011;50264;52.088;5.296;2023-01-20T03:45:28;61.9;;;39.81;;
64022;SDS011;50264;52.088;5.296;2023-01-20T03:47:14;71.91;;;40.0;;
64022;SDS011;50264;52.088;5.296;2023-01-20T03:49:01;66.41;;;38.81;;
64022;SDS011;50264;52.088;5.296;2023-01-20T03:52:32;58.2;;;38.0;;
64022;SDS011;50264;52.088;5.296;2023-01-20T03:54:14;56.6;;;36.21;;
64022;SDS011;50264;52.088;5.296;2023-01-20T03:55:59;58.4;;;38.6;;
64022;SDS011;50264;52.088;5.296;2023-01-20T03:57:42;62.6;;;37.31;;
64022;SDS011;50264;52.088;5.296;2023-01-20T03:59:28;65.8;;;39.71;;
64022;SDS011;50264;52.088;5.296;2023-01-20T04:02:47;63.7;;;39.1;;
64022;SDS011;50264;52.088;5.296;2023-01-20T04:04:25;61.7;;;39.0;;
64022;SDS011;50264;52.088;5.296;2023-01-20T04:06:03;60.7;;;37.4;;
64022;SDS011;50264;52.088;5.296;2023-01-20T04:07:42;64.7;;;38.81;;
64022;SDS011;50264;52.088;5.296;2023-01-20T04:11:08;61.7;;;39.31;;
64022;SDS011;50264;52.088;5.296;2023-01-20T04:12:45;73.3;;;41.8;;
64022;SDS011;50264;52.088;5.296;2023-01-20T04:14:21;72.41;;;41.9;;
64022;SDS011;50264;52.088;5.296;2023-01-20T04:15:57;66.1;;;41.3;;
64022;SDS011;50264;52.088;5.296;2023-01-20T04:19:12;72.11;;;42.1;;
64022;SDS011;50264;52.088;5.296;2023-01-20T04:20:49;67.3;;;41.0;;
64022;SDS011;50264;52.088;5.296;2023-01-20T04:22:32;73.5;;;42.8;;
64022;SDS011;50264;52.088;5.296;2023-01-20T04:26:00;67.0;;;42.5;;
64022;SDS011;50264;52.088;5.296;2023-01-20T04:27:36;69.91;;;41.1;;
64022;SDS011;50264;52.088;5.296;2023-01-20T04:29:12;67.0;;;40.6;;
64022;SDS011;50264;52.088;5.296;2023-01-20T04:30:49;62.2;;;39.0;;
64022;SDS011;50264;52.088;5.296;2023-01-20T04:34:02;67.0;;;41.5;;
64022;SDS011;50264;52.088;5.296;2023-01-20T04:35:40;68.91;;;41.5;;
64022;SDS011;50264;52.088;5.296;2023-01-20T04:37:16;71.11;;;41.5;;
64022;SDS011;50264;52.088;5.296;2023-01-20T04:40:28;64.2;;;41.9;;
64022;SDS011;50264;52.088;5.296;2023-01-20T04:42:04;74.2;;;44.9;;
64022;SDS011;50264;52.088;5.296;2023-01-20T04:43:41;71.3;;;42.7;;
64022;SDS011;50264;52.088;5.296;2023-01-20T04:45:19;80.8;;;45.4;;
64022;SDS011;50264;52.088;5.296;2023-01-20T04:48:33;73.41;;;42.1;;
64022;SDS011;50264;52.088;5.296;2023-01-20T04:50:10;68.91;;;41.5;;
64022;SDS011;50264;52.088;5.296;2023-01-20T04:51:47;68.91;;;41.5;;
64022;SDS011;50264;52.088;5.296;2023-01-20T04:54:59;73.7;;;40.9;;
64022;SDS011;50264;52.088;5.296;2023-01-20T04:56:37;69.11;;;41.2;;
64022;SDS011;50264;52.088;5.296;2023-01-20T04:58:14;72.91;;;41.5;;
64022;SDS011;50264;52.088;5.296;2023-01-20T05:01:26;67.2;;;42.9;;
64022;SDS011;50264;52.088;5.296;2023-01-20T05:03:02;65.7;;;40.81;;
64022;SDS011;50264;52.088;5.296;2023-01-20T05:04:39;70.11;;;41.6;;
64022;SDS011;50264;52.088;5.296;2023-01-20T05:06:15;68.2;;;40.6;;
64022;SDS011;50264;52.088;5.296;2023-01-20T05:09:30;67.7;;;41.8;;
64022;SDS011;50264;52.088;5.296;2023-01-20T05:11:06;66.91;;;42.4;;
64022;SDS011;50264;52.088;5.296;2023-01-20T05:12:43;75.8;;;44.4;;
64022;SDS011;50264;52.088;5.296;2023-01-20T05:15:55;75.5;;;42.6;;
64022;SDS011;50264;52.088;5.296;2023-01-20T05:17:32;68.61;;;42.4;;
64022;SDS011;50264;52.088;5.296;2023-01-20T05:19:09;76.2;;;44.1;;
64022;SDS011;50264;52.088;5.296;2023-01-20T05:22:24;76.11;;;44.6;;
64022;SDS011;50264;52.088;5.296;2023-01-20T05:24:00;86.8;;;47.2;;
64022;SDS011;50264;52.088;5.296;2023-01-20T05:25:36;72.2;;;45.9;;
64022;SDS011;50264;52.088;5.296;2023-01-20T05:27:12;81.91;;;46.8;;
64022;SDS011;50264;52.088;5.296;2023-01-20T05:30:24;78.11;;;46.9;;
64022;SDS011;50264;52.088;5.296;2023-01-20T05:32:00;83.9;;;48.3;;
64022;SDS011;50264;52.088;5.296;2023-01-20T05:33:38;85.7;;;47.2;;
64022;SDS011;50264;52.088;5.296;2023-01-20T05:36:52;87.3;;;47.2;;
64022;SDS011;50264;52.088;5.296;2023-01-20T05:44:14;82.6;;;49.6;;
64022;SDS011;50264;52.088;5.296;2023-01-20T05:47:27;83.3;;;48.5;;
64022;SDS011;50264;52.088;5.296;2023-01-20T05:49:04;87.0;;;48.1;;
64022;SDS011;50264;52.088;5.296;2023-01-20T05:50:41;94.4;;;49.5;;
64022;SDS011;50264;52.088;5.296;2023-01-20T05:52:17;87.2;;;49.9;;
64022;SDS011;50264;52.088;5.296;2023-01-20T05:55:29;90.0;;;50.8;;
64022;SDS011;50264;52.088;5.296;2023-01-20T05:57:05;87.8;;;51.2;;
64022;SDS011;50264;52.088;5.296;2023-01-20T05:58:42;84.8;;;50.9;;
64022;SDS011;50264;52.088;5.296;2023-01-20T06:01:55;97.4;;;52.5;;
64022;SDS011;50264;52.088;5.296;2023-01-20T06:03:31;95.0;;;52.1;;
64022;SDS011;50264;52.088;5.296;2023-01-20T06:05:09;95.3;;;52.1;;
64022;SDS011;50264;52.088;5.296;2023-01-20T06:08:21;85.9;;;50.0;;
64022;SDS011;50264;52.088;5.296;2023-01-20T06:11:33;84.2;;;49.7;;
64022;SDS011;50264;52.088;5.296;2023-01-20T06:13:09;89.3;;;52.4;;
64022;SDS011;50264;52.088;5.296;2023-01-20T06:16:21;88.6;;;50.6;;
64022;SDS011;50264;52.088;5.296;2023-01-20T06:17:58;86.8;;;51.8;;
64022;SDS011;50264;52.088;5.296;2023-01-20T06:19:34;87.2;;;51.7;;
64022;SDS011;50264;52.088;5.296;2023-01-20T06:22:47;93.5;;;53.2;;
64022;SDS011;50264;52.088;5.296;2023-01-20T06:24:23;83.3;;;51.1;;
64022;SDS011;50264;52.088;5.296;2023-01-20T06:26:00;88.0;;;51.6;;
64022;SDS011;50264;52.088;5.296;2023-01-20T06:29:14;94.1;;;52.3;;
64022;SDS011;50264;52.088;5.296;2023-01-20T06:30:50;93.9;;;53.4;;
64022;SDS011;50264;52.088;5.296;2023-01-20T06:32:26;88.3;;;52.8;;
64022;SDS011;50264;52.088;5.296;2023-01-20T06:34:02;90.6;;;51.5;;
64022;SDS011;50264;52.088;5.296;2023-01-20T06:37:14;80.0;;;50.2;;
64022;SDS011;50264;52.088;5.296;2023-01-20T06:38:52;84.0;;;47.9;;
64022;SDS011;50264;52.088;5.296;2023-01-20T06:40:27;81.61;;;49.4;;
64022;SDS011;50264;52.088;5.296;2023-01-20T06:43:41;84.4;;;46.9;;
64022;SDS011;50264;52.088;5.296;2023-01-20T06:45:18;80.2;;;47.4;;
64022;SDS011;50264;52.088;5.296;2023-01-20T06:46:56;80.3;;;47.7;;
64022;SDS011;50264;52.088;5.296;2023-01-20T06:50:08;86.6;;;49.4;;
64022;SDS011;50264;52.088;5.296;2023-01-20T06:51:46;81.3;;;47.9;;
64022;SDS011;50264;52.088;5.296;2023-01-20T06:53:24;76.61;;;45.6;;
64022;SDS011;50264;52.088;5.296;2023-01-20T06:55:00;71.11;;;42.8;;
64022;SDS011;50264;52.088;5.296;2023-01-20T06:58:12;72.7;;;45.2;;
64022;SDS011;50264;52.088;5.296;2023-01-20T06:59:48;78.61;;;45.9;;
64022;SDS011;50264;52.088;5.296;2023-01-20T07:01:25;73.0;;;44.4;;
64022;SDS011;50264;52.088;5.296;2023-01-20T07:04:41;70.91;;;43.6;;
64022;SDS011;50264;52.088;5.296;2023-01-20T07:06:18;71.0;;;42.8;;
64022;SDS011;50264;52.088;5.296;2023-01-20T07:08:01;68.41;;;42.0;;
64022;SDS011;50264;52.088;5.296;2023-01-20T07:09:37;69.41;;;40.6;;
64022;SDS011;50264;52.088;5.296;2023-01-20T07:12:50;69.41;;;40.6;;
64022;SDS011;50264;52.088;5.296;2023-01-20T07:14:26;66.91;;;41.2;;
64022;SDS011;50264;52.088;5.296;2023-01-20T07:16:02;68.7;;;41.4;;
64022;SDS011;50264;52.088;5.296;2023-01-20T07:19:14;71.61;;;43.3;;
64022;SDS011;50264;52.088;5.296;2023-01-20T07:20:52;65.3;;;41.6;;
64022;SDS011;50264;52.088;5.296;2023-01-20T07:22:28;64.0;;;43.2;;
64022;SDS011;50264;52.088;5.296;2023-01-20T07:25:42;70.2;;;42.8;;
64022;SDS011;50264;52.088;5.296;2023-01-20T07:27:18;69.8;;;43.6;;
64022;SDS011;50264;52.088;5.296;2023-01-20T07:28:56;73.3;;;43.7;;
64022;SDS011;50264;52.088;5.296;2023-01-20T07:30:32;80.8;;;52.0;;
64022;SDS011;50264;52.088;5.296;2023-01-20T07:33:45;71.61;;;44.6;;
64022;SDS011;50264;52.088;5.296;2023-01-20T07:35:22;71.11;;;42.9;;
64022;SDS011;50264;52.088;5.296;2023-01-20T07:37:00;71.41;;;44.1;;
64022;SDS011;50264;52.088;5.296;2023-01-20T07:40:13;72.11;;;43.1;;
64022;SDS011;50264;52.088;5.296;2023-01-20T07:41:49;70.5;;;43.7;;
64022;SDS011;50264;52.088;5.296;2023-01-20T07:43:26;78.61;;;44.1;;
64022;SDS011;50264;52.088;5.296;2023-01-20T07:46:40;67.91;;;44.5;;
64022;SDS011;50264;52.088;5.296;2023-01-20T07:48:16;73.2;;;44.5;;
64022;SDS011;50264;52.088;5.296;2023-01-20T07:49:52;76.11;;;44.2;;
64022;SDS011;50264;52.088;5.296;2023-01-20T07:51:28;80.2;;;45.5;;
64022;SDS011;50264;52.088;5.296;2023-01-20T07:54:42;73.11;;;43.7;;
64022;SDS011;50264;52.088;5.296;2023-01-20T07:56:19;68.0;;;42.5;;
64022;SDS011;50264;52.088;5.296;2023-01-20T07:58:01;71.8;;;43.4;;
64022;SDS011;50264;52.088;5.296;2023-01-20T08:01:14;79.8;;;43.9;;
64022;SDS011;50264;52.088;5.296;2023-01-20T08:02:53;76.5;;;45.1;;
64022;SDS011;50264;52.088;5.296;2023-01-20T08:04:29;73.2;;;44.4;;
64022;SDS011;50264;52.088;5.296;2023-01-20T08:06:06;78.91;;;44.3;;
64022;SDS011;50264;52.088;5.296;2023-01-20T08:09:26;69.8;;;42.9;;
64022;SDS011;50264;52.088;5.296;2023-01-20T08:11:03;80.11;;;43.9;;
64022;SDS011;50264;52.088;5.296;2023-01-20T08:12:40;73.2;;;43.5;;
64022;SDS011;50264;52.088;5.296;2023-01-20T08:15:53;75.8;;;43.9;;
64022;SDS011;50264;52.088;5.296;2023-01-20T08:17:29;78.5;;;46.1;;
64022;SDS011;50264;52.088;5.296;2023-01-20T08:19:05;72.41;;;44.2;;
64022;SDS011;50264;52.088;5.296;2023-01-20T08:22:17;71.7;;;43.2;;
64022;SDS011;50264;52.088;5.296;2023-01-20T08:23:54;74.5;;;42.8;;
64022;SDS011;50264;52.088;5.296;2023-01-20T08:25:31;75.8;;;43.2;;
64022;SDS011;50264;52.088;5.296;2023-01-20T08:27:07;73.8;;;41.3;;
64022;SDS011;50264;52.088;5.296;2023-01-20T08:30:19;65.91;;;41.5;;
64022;SDS011;50264;52.088;5.296;2023-01-20T08:31:57;72.7;;;41.6;;
64022;SDS011;50264;52.088;5.296;2023-01-20T08:33:34;70.11;;;42.8;;
64022;SDS011;50264;52.088;5.296;2023-01-20T08:36:47;63.2;;;39.81;;
64022;SDS011;50264;52.088;5.296;2023-01-20T08:38:24;70.8;;;42.2;;
64022;SDS011;50264;52.088;5.296;2023-01-20T08:40:00;71.7;;;42.0;;
64022;SDS011;50264;52.088;5.296;2023-01-20T08:43:16;61.9;;;40.31;;
64022;SDS011;50264;52.088;5.296;2023-01-20T08:44:53;65.0;;;40.6;;
64022;SDS011;50264;52.088;5.296;2023-01-20T08:46:29;65.3;;;40.5;;
64022;SDS011;50264;52.088;5.296;2023-01-20T08:48:07;64.91;;;39.71;;
64022;SDS011;50264;52.088;5.296;2023-01-20T08:51:22;57.8;;;38.71;;
64022;SDS011;50264;52.088;5.296;2023-01-20T08:53:01;62.5;;;38.81;;
64022;SDS011;50264;52.088;5.296;2023-01-20T08:54:37;60.8;;;38.9;;
64022;SDS011;50264;52.088;5.296;2023-01-20T08:57:51;58.7;;;37.5;;
64022;SDS011;50264;52.088;5.296;2023-01-20T08:59:27;56.0;;;37.4;;
64022;SDS011;50264;52.088;5.296;2023-01-20T09:01:06;57.7;;;37.21;;
64022;SDS011;50264;52.088;5.296;2023-01-20T09:02:43;57.1;;;37.5;;
64022;SDS011;50264;52.088;5.296;2023-01-20T09:06:00;60.6;;;37.6;;
64022;SDS011;50264;52.088;5.296;2023-01-20T09:07:37;60.0;;;35.5;;
64022;SDS011;50264;52.088;5.296;2023-01-20T09:09:13;53.9;;;33.4;;
64022;SDS011;50264;52.088;5.296;2023-01-20T09:12:36;48.4;;;33.1;;
64022;SDS011;50264;52.088;5.296;2023-01-20T09:14:12;50.2;;;32.9;;
64022;SDS011;50264;52.088;5.296;2023-01-20T09:15:50;54.9;;;34.31;;
64022;SDS011;50264;52.088;5.296;2023-01-20T09:17:27;48.3;;;32.6;;
64022;SDS011;50264;52.088;5.296;2023-01-20T09:20:39;53.9;;;34.5;;
64022;SDS011;50264;52.088;5.296;2023-01-20T09:22:15;51.6;;;32.71;;
64022;SDS011;50264;52.088;5.296;2023-01-20T09:23:51;54.4;;;34.21;;
64022;SDS011;50264;52.088;5.296;2023-01-20T09:27:03;56.2;;;35.21;;
64022;SDS011;50264;52.088;5.296;2023-01-20T09:28:41;42.7;;;30.8;;
64022;SDS011;50264;52.088;5.296;2023-01-20T09:30:17;48.4;;;31.9;;
64022;SDS011;50264;52.088;5.296;2023-01-20T09:35:13;47.8;;;31.6;;
64022;SDS011;50264;52.088;5.296;2023-01-20T09:36:50;43.0;;;30.6;;
64022;SDS011;50264;52.088;5.296;2023-01-20T09:45:25;41.2;;;29.8;;
64022;SDS011;50264;52.088;5.296;2023-01-20T09:47:26;48.4;;;30.2;;
64022;SDS011;50264;52.088;5.296;2023-01-20T09:53:22;47.8;;;31.0;;
64022;SDS011;50264;52.088;5.296;2023-01-20T09:55:14;41.7;;;29.3;;
64022;SDS011;50264;52.088;5.296;2023-01-20T09:56:59;51.3;;;30.9;;
64022;SDS011;50264;52.088;5.296;2023-01-20T10:00:24;42.1;;;29.6;;
64022;SDS011;50264;52.088;5.296;2023-01-20T10:02:05;36.0;;;28.0;;
64022;SDS011;50264;52.088;5.296;2023-01-20T10:03:53;45.6;;;30.8;;
64022;SDS011;50264;52.088;5.296;2023-01-20T10:05:36;41.1;;;29.5;;
64022;SDS011;50264;52.088;5.296;2023-01-20T10:10:44;45.7;;;30.2;;
64022;SDS011;50264;52.088;5.296;2023-01-20T10:12:28;45.4;;;30.2;;
64022;SDS011;50264;52.088;5.296;2023-01-20T10:14:11;42.3;;;28.2;;
64022;SDS011;50264;52.088;5.296;2023-01-20T10:15:54;38.71;;;27.3;;
64022;SDS011;50264;52.088;5.296;2023-01-20T10:19:16;40.71;;;27.7;;
64022;SDS011;50264;52.088;5.296;2023-01-20T10:20:58;34.1;;;26.8;;
64022;SDS011;50264;52.088;5.296;2023-01-20T10:22:46;38.4;;;27.6;;
64022;SDS011;50264;52.088;5.296;2023-01-20T10:24:28;36.4;;;26.0;;
64022;SDS011;50264;52.088;5.296;2023-01-20T10:27:52;37.21;;;25.9;;
64022;SDS011;50264;52.088;5.296;2023-01-20T10:29:33;38.71;;;27.6;;
64022;SDS011;50264;52.088;5.296;2023-01-20T10:31:13;40.4;;;25.5;;
64022;SDS011;50264;52.088;5.296;2023-01-20T10:32:57;33.71;;;25.9;;
64022;SDS011;50264;52.088;5.296;2023-01-20T10:34:42;34.71;;;25.4;;
64022;SDS011;50264;52.088;5.296;2023-01-20T10:38:03;31.8;;;25.5;;
64022;SDS011;50264;52.088;5.296;2023-01-20T10:39:45;31.8;;;24.8;;
64022;SDS011;50264;52.088;5.296;2023-01-20T10:41:27;33.21;;;23.5;;
64022;SDS011;50264;52.088;5.296;2023-01-20T10:43:13;32.71;;;24.7;;
64022;SDS011;50264;52.088;5.296;2023-01-20T10:46:33;33.6;;;23.4;;
64022;SDS011;50264;52.088;5.296;2023-01-20T10:48:28;36.6;;;24.6;;
64022;SDS011;50264;52.088;5.296;2023-01-20T10:50:29;31.9;;;24.6;;
64022;SDS011;50264;52.088;5.296;2023-01-20T10:52:25;33.71;;;23.5;;
64022;SDS011;50264;52.088;5.296;2023-01-20T10:54:18;33.0;;;23.7;;
64022;SDS011;50264;52.088;5.296;2023-01-20T10:56:09;27.0;;;22.4;;
64022;SDS011;50264;52.088;5.296;2023-01-20T10:58:03;31.2;;;22.2;;
64022;SDS011;50264;52.088;5.296;2023-01-20T10:59:51;27.9;;;21.9;;
64022;SDS011;50264;52.088;5.296;2023-01-20T11:03:11;31.2;;;21.0;;
64022;SDS011;50264;52.088;5.296;2023-01-20T11:04:56;27.7;;;21.3;;
64022;SDS011;50264;52.088;5.296;2023-01-20T11:06:35;29.9;;;21.2;;
64022;SDS011;50264;52.088;5.296;2023-01-20T11:08:14;26.7;;;20.8;;
64022;SDS011;50264;52.088;5.296;2023-01-20T11:11:29;28.0;;;19.8;;
64022;SDS011;50264;52.088;5.296;2023-01-20T11:13:07;24.2;;;19.0;;
64022;SDS011;50264;52.088;5.296;2023-01-20T11:14:45;26.8;;;19.61;;
64022;SDS011;50264;52.088;5.296;2023-01-20T11:18:19;27.5;;;19.0;;
64022;SDS011;50264;52.088;5.296;2023-01-20T11:20:03;26.1;;;18.2;;
64022;SDS011;50264;52.088;5.296;2023-01-20T11:21:42;21.1;;;17.61;;
64022;SDS011;50264;52.088;5.296;2023-01-20T11:23:18;25.7;;;17.61;;
64022;SDS011;50264;52.088;5.296;2023-01-20T11:24:58;20.9;;;17.11;;
64022;SDS011;50264;52.088;5.296;2023-01-20T11:28:14;22.0;;;17.3;;
64022;SDS011;50264;52.088;5.296;2023-01-20T11:29:55;24.7;;;18.41;;
64022;SDS011;50264;52.088;5.296;2023-01-20T11:31:35;22.9;;;18.5;;
64022;SDS011;50264;52.088;5.296;2023-01-20T11:33:15;24.7;;;17.5;;
64022;SDS011;50264;52.088;5.296;2023-01-20T11:36:32;23.3;;;17.7;;
64022;SDS011;50264;52.088;5.296;2023-01-20T11:38:24;22.6;;;16.8;;
64022;SDS011;50264;52.088;5.296;2023-01-20T11:40:14;20.9;;;16.9;;
64022;SDS011;50264;52.088;5.296;2023-01-20T11:42:12;21.0;;;17.11;;
64022;SDS011;50264;52.088;5.296;2023-01-20T11:43:51;21.6;;;17.11;;
64022;SDS011;50264;52.088;5.296;2023-01-20T11:47:14;22.3;;;16.3;;
64022;SDS011;50264;52.088;5.296;2023-01-20T11:49:06;19.8;;;15.4;;
64022;SDS011;50264;52.088;5.296;2023-01-20T11:50:50;23.8;;;16.11;;
64022;SDS011;50264;52.088;5.296;2023-01-20T11:52:30;25.2;;;18.0;;
64022;SDS011;50264;52.088;5.296;2023-01-20T11:54:11;25.1;;;18.0;;
64022;SDS011;50264;52.088;5.296;2023-01-20T11:57:30;26.5;;;17.61;;
64022;SDS011;50264;52.088;5.296;2023-01-20T11:59:15;21.8;;;16.7;;
64022;SDS011;50264;52.088;5.296;2023-01-20T12:00:59;19.8;;;16.0;;
64022;SDS011;50264;52.088;5.296;2023-01-20T12:02:40;22.1;;;17.8;;
64022;SDS011;50264;52.088;5.296;2023-01-20T12:06:28;25.2;;;17.5;;
64022;SDS011;50264;52.088;5.296;2023-01-20T12:08:10;25.8;;;18.2;;
64022;SDS011;50264;52.088;5.296;2023-01-20T12:09:57;24.7;;;19.8;;
64022;SDS011;50264;52.088;5.296;2023-01-20T12:11:39;27.2;;;19.11;;
64022;SDS011;50264;52.088;5.296;2023-01-20T12:13:31;26.4;;;19.3;;
64022;SDS011;50264;52.088;5.296;2023-01-20T12:15:14;24.2;;;20.5;;
64022;SDS011;50264;52.088;5.296;2023-01-20T12:18:48;26.2;;;20.41;;
64022;SDS011;50264;52.088;5.296;2023-01-20T12:20:31;28.0;;;21.6;;
64022;SDS011;50264;52.088;5.296;2023-01-20T12:22:16;30.4;;;19.8;;
64022;SDS011;50264;52.088;5.296;2023-01-20T12:23:59;28.6;;;21.0;;
64022;SDS011;50264;52.088;5.296;2023-01-20T12:25:45;28.2;;;21.6;;
64022;SDS011;50264;52.088;5.296;2023-01-20T12:29:09;33.9;;;22.5;;
64022;SDS011;50264;52.088;5.296;2023-01-20T12:30:54;31.9;;;23.3;;
64022;SDS011;50264;52.088;5.296;2023-01-20T12:32:34;30.6;;;22.1;;
64022;SDS011;50264;52.088;5.296;2023-01-20T12:34:12;32.21;;;22.8;;
64022;SDS011;50264;52.088;5.296;2023-01-20T12:39:31;31.5;;;23.8;;
64022;SDS011;50264;52.088;5.296;2023-01-20T12:41:55;33.71;;;23.5;;
64022;SDS011;50264;52.088;5.296;2023-01-20T12:45:58;31.1;;;23.0;;
64022;SDS011;50264;52.088;5.296;2023-01-20T12:47:54;30.5;;;22.5;;
64022;SDS011;50264;52.088;5.296;2023-01-20T12:49:48;33.1;;;23.8;;
64022;SDS011;50264;52.088;5.296;2023-01-20T12:51:41;34.31;;;25.0;;
64022;SDS011;50264;52.088;5.296;2023-01-20T12:53:32;31.0;;;24.2;;
64022;SDS011;50264;52.088;5.296;2023-01-20T12:55:28;35.0;;;25.3;;
64022;SDS011;50264;52.088;5.296;2023-01-20T12:57:21;31.1;;;23.9;;
64022;SDS011;50264;52.088;5.296;2023-01-20T12:59:18;39.1;;;24.6;;
64022;SDS011;50264;52.088;5.296;2023-01-20T13:02:26;39.0;;;24.5;;
64022;SDS011;50264;52.088;5.296;2023-01-20T13:03:23;32.1;;;22.6;;
64022;SDS011;50264;52.088;5.296;2023-01-20T13:04:29;32.1;;;22.6;;
64022;SDS011;50264;52.088;5.296;2023-01-20T13:05:51;32.1;;;22.6;;